Informes de METARS cercanos

 

LEAL - Alicante/El Alte, Spain
Distance from station: SSE 60km
Actualización: 13/11/2019 14:00
Few Clouds
Few Clouds
 Viento del ONO
Viento: ONO 35 km/h, Racha: 57 km/h
Temperatura: 23°C
Rocío: 9°C
Humedad: 41%
Barómetro: 1006 hPa
Clouds: Few Clouds
Visibility: 10 km
Cloud details: Few Clouds 1798 m
2019/11/13 13:00 LEAL 131300Z 29019G31KT 9999 FEW059 23/09 Q1006 NOSIG
LEVC - Valencia (civ/Mi, Spain
Distance from station: NNE 84km
Actualización: 13/11/2019 14:00
Few Clouds
Few Clouds
 Viento del varies
Viento: varies 7 km/h
Temperatura: 20°C
Rocío: 7°C
Humedad: 43%
Barómetro: 1007 hPa
Clouds: Few Clouds
Visibility: 10 km
Cloud details: Few Clouds 914 m
2019/11/13 13:00 LEVC 131300Z VRB04KT 9999 FEW030 20/07 Q1007 NOSIG
 
LEAB - Albacete (civ/Mi, Spain
Distance from station: O 95km
Actualización: 13/11/2019 14:00
Muy nuboso
Muy nuboso
 Viento del ONO
Viento: ONO 39 km/h, Racha: 59 km/h
Temperatura: 15°C
Rocío: 9°C
Humedad: 68%
Barómetro: 1011 hPa
Clouds: Muy nuboso
Visibility: 10 km
Cloud details: Muy nuboso 823 m
2019/11/13 13:00 LEAB 131300Z 29021G32KT 9999 BKN027 15/09 Q1011 NOSIG
LERI - Alcantarilla(Sp-, Spain
Distance from station: SSO 100km
Actualización: 13/11/2019 14:00
Despejado
Despejado
 Viento del NO
Viento: NO 39 km/h, Racha: 57 km/h
Temperatura: 23°C
Rocío: 7°C
Humedad: 36%
Barómetro: 1008 hPa
Resumen: Despejado
Visibility: greater than 10 km
2019/11/13 13:00 LERI 131300Z 31021G31KT 290V350 CAVOK 23/07 Q1008 NOSIG
 
LELC - San Javier(Mil/C, Spain
Distance from station: S 113km
Actualización: 13/11/2019 14:00
Despejado
Despejado
 Viento del NO
Viento: NO 31 km/h, Racha: 54 km/h
Temperatura: 24°C
Rocío: 7°C
Humedad: 34%
Barómetro: 1007 hPa
Resumen: Despejado
Visibility: greater than 10 km
2019/11/13 13:00 LELC 131300Z 32017G29KT CAVOK 24/07 Q1007 NOSIG
LEIB - Ibiza/Es Codola, Spain
Distance from station: E 186km
Actualización: 13/11/2019 14:00
Parcialmente nuboso
Parcialmente nuboso
 Viento del ONO
Viento: ONO 20 km/h
Temperatura: 17°C
Rocío: 13°C
Humedad: 77%
Barómetro: 1006 hPa
Clouds: Parcialmente nuboso
Visibility: 10 km
Cloud details: Few Clouds 579 m
Parcialmente nuboso 762 m
2019/11/13 13:00 LEIB 131300Z 30011KT 270V350 9999 FEW019 SCT025 17/13 Q1006 NOSIG
 
LEAM - Almeria Airport, Spain
Distance from station: SSO 256km
Actualización: 13/11/2019 14:00
Few Clouds
Few Clouds
 Viento del SO
Viento: SO 22 km/h
Temperatura: 20°C
Rocío: 13°C
Humedad: 64%
Barómetro: 1009 hPa
Clouds: Few Clouds
Visibility: 10 km
Cloud details: Few Clouds 1219 m
2019/11/13 13:00 LEAM 131300Z 22012KT 200V260 9999 FEW040 20/13 Q1009
LEMD - Madrid/Barajas, Spain
Distance from station: NO 305km
Actualización: 13/11/2019 14:00
Few Clouds
Few Clouds
 Viento del N
Viento: N 11 km/h
Temperatura: 16°C
Rocío: 3°C
Humedad: 42%
Barómetro: 1011 hPa
Clouds: Few Clouds
Visibility: 10 km
Cloud details: Few Clouds 1524 m
2019/11/13 13:00 LEMD 131300Z 36006KT 330V040 9999 FEW050 16/03 Q1011 NOSIG
 
LEPA - Palma De Mallorc, Spain
Distance from station: ENE 313km
Actualización: 13/11/2019 14:00
Parcialmente nuboso
Parcialmente nuboso
 Viento del ENE
Viento: ENE 15 km/h
Temperatura: 14°C
Rocío: 12°C
Humedad: 88%
Barómetro: 1005 hPa
Clouds: Parcialmente nuboso
Visibility: 10 km
Cloud details: Few Clouds 427 m
Parcialmente nuboso 1372 m
2019/11/13 13:00 LEPA 131300Z 06008KT 030V090 9999 FEW014 SCT045 14/12 Q1005 NOSIG